createdAt,value
2023-05-09T00:01:21.195Z,97.9
2023-05-09T00:04:21.228Z,96.1
2023-05-09T00:07:21.064Z,97.1
2023-05-09T00:10:20.989Z,98.9
2023-05-09T00:13:21.402Z,96.1
2023-05-09T00:16:21.282Z,97.9
2023-05-09T00:19:21.216Z,97.3
2023-05-09T00:22:21.093Z,98.3
2023-05-09T00:25:21.009Z,96.1
2023-05-09T00:28:21.136Z,98.7
2023-05-09T00:31:21.063Z,100.8
2023-05-09T00:34:21.343Z,98.2
2023-05-09T00:37:20.989Z,97.3
2023-05-09T00:40:21.047Z,97.9
2023-05-09T00:43:21.058Z,101.1
2023-05-09T00:46:21.291Z,102.1
2023-05-09T00:49:21.258Z,105.4
2023-05-09T00:52:21.067Z,103.5
2023-05-09T00:55:21.059Z,105.8
2023-05-09T00:58:21.075Z,107.2
2023-05-09T01:01:21.143Z,107.6
2023-05-09T01:04:21.749Z,111.8
2023-05-09T01:07:21.046Z,111.1
2023-05-09T01:10:21.072Z,112.1
2023-05-09T01:13:21.562Z,111.3
2023-05-09T01:16:21.608Z,115.4
2023-05-09T01:19:31.500Z,117.0
2023-05-09T01:22:21.063Z,120.9
2023-05-09T01:25:21.048Z,122.8
2023-05-09T01:28:21.045Z,122.9
2023-05-09T01:31:21.107Z,125.4
2023-05-09T01:34:21.175Z,129.5
2023-05-09T01:37:21.098Z,133.3
2023-05-09T01:40:21.133Z,132.6
2023-05-09T01:43:21.077Z,135.1
2023-05-09T01:46:21.697Z,136.5
2023-05-09T01:49:21.072Z,137.9
2023-05-09T01:52:21.071Z,138.2
2023-05-09T01:55:21.000Z,140.0
2023-05-09T01:58:21.045Z,141.8
2023-05-09T02:01:21.199Z,141.5
2023-05-09T02:04:21.221Z,144.9
2023-05-09T02:07:21.137Z,142.9
2023-05-09T02:10:21.040Z,144.7
2023-05-09T02:13:21.178Z,142.6
2023-05-09T02:16:21.256Z,144.1
2023-05-09T02:19:24.127Z,148.4
2023-05-09T02:22:21.383Z,149.2
2023-05-09T02:25:21.110Z,148.4
2023-05-09T02:28:21.130Z,151.1
2023-05-09T02:31:21.103Z,151.5
2023-05-09T02:34:21.106Z,151.3
2023-05-09T02:37:20.938Z,151.2
2023-05-09T02:40:21.186Z,151.0
2023-05-09T02:43:21.105Z,148.4
2023-05-09T02:46:21.393Z,146.6
2023-05-09T02:49:31.294Z,146.7
2023-05-09T02:52:21.024Z,144.4
2023-05-09T02:55:21.093Z,142.1
2023-05-09T02:58:31.132Z,143.6
2023-05-09T03:01:21.241Z,142.6
2023-05-09T03:04:21.518Z,131.9
2023-05-09T03:07:21.013Z,130.0
2023-05-09T03:10:20.983Z,123.4
2023-05-09T03:13:21.178Z,117.0
2023-05-09T03:16:21.258Z,119.6
2023-05-09T03:19:26.444Z,115.7
2023-05-09T03:22:21.132Z,109.8
2023-05-09T03:25:21.197Z,108.5
2023-05-09T03:28:21.098Z,105.7
2023-05-09T03:31:21.126Z,102.1
2023-05-09T03:34:21.121Z,96.9
2023-05-09T03:37:21.131Z,96.6
2023-05-09T03:40:21.083Z,95.5
2023-05-09T03:43:21.105Z,95.2
2023-05-09T03:46:21.337Z,95.2
2023-05-09T03:49:21.068Z,95.0
2023-05-09T03:52:21.063Z,93.8
2023-05-09T03:55:21.109Z,95.2
2023-05-09T03:58:20.981Z,96.5
2023-05-09T04:01:21.183Z,95.7
2023-05-09T04:04:21.560Z,93.3
2023-05-09T04:07:21.231Z,95.9
2023-05-09T04:10:21.095Z,97.2
2023-05-09T04:13:21.372Z,94.0
2023-05-09T04:16:21.351Z,94.0
2023-05-09T04:19:21.122Z,91.7
2023-05-09T04:22:21.074Z,90.5
2023-05-09T04:25:21.062Z,90.3
2023-05-09T04:28:21.025Z,86.0
2023-05-09T04:31:21.539Z,86.3
2023-05-09T04:34:21.119Z,84.7
2023-05-09T04:37:21.082Z,84.6
2023-05-09T04:40:20.997Z,84.9
2023-05-09T04:43:21.046Z,82.3
2023-05-09T04:46:23.118Z,83.0
2023-05-09T04:49:21.142Z,82.9
2023-05-09T04:52:21.027Z,82.3
2023-05-09T04:55:21.039Z,82.9
2023-05-09T04:58:30.942Z,81.1
2023-05-09T05:01:21.084Z,80.0
2023-05-09T05:04:21.148Z,82.1
2023-05-09T05:07:21.310Z,80.2
2023-05-09T05:10:21.064Z,78.8
2023-05-09T05:13:23.978Z,77.0
2023-05-09T05:16:21.484Z,78.1
2023-05-09T05:19:21.027Z,77.3
2023-05-09T05:22:21.023Z,74.8
2023-05-09T05:25:21.065Z,73.6
2023-05-09T05:28:20.997Z,73.2
2023-05-09T05:31:22.996Z,70.8
2023-05-09T05:34:21.101Z,69.7
2023-05-09T05:37:21.094Z,68.9
2023-05-09T05:40:21.074Z,71.3
2023-05-09T05:43:21.236Z,68.6
2023-05-09T05:46:21.627Z,66.5
2023-05-09T05:49:21.032Z,64.1
2023-05-09T05:52:21.410Z,64.2
2023-05-09T05:55:21.131Z,62.6
2023-05-09T05:58:21.127Z,63.7
2023-05-09T06:01:21.042Z,62.8
2023-05-09T06:04:21.810Z,61.7
2023-05-09T06:07:21.075Z,60.9
2023-05-09T06:10:21.118Z,59.6
2023-05-09T06:13:21.260Z,60.7
2023-05-09T06:16:31.389Z,58.1
2023-05-09T06:19:21.130Z,56.4
2023-05-09T06:22:21.100Z,58.9
2023-05-09T06:25:43.527Z,56.8
2023-05-09T06:28:21.009Z,59.5
2023-05-09T06:31:31.085Z,56.5
2023-05-09T06:34:21.129Z,57.0
2023-05-09T06:37:21.033Z,58.8
2023-05-09T06:40:21.029Z,57.4
2023-05-09T06:43:21.088Z,53.7
2023-05-09T06:46:21.718Z,54.0
2023-05-09T06:49:21.096Z,52.6
2023-05-09T06:52:21.067Z,51.6
2023-05-09T06:55:21.120Z,46.4
2023-05-09T06:58:21.079Z,51.4
2023-05-09T07:01:21.186Z,51.1
2023-05-09T07:04:21.094Z,50.0
2023-05-09T07:07:21.056Z,46.4
2023-05-09T07:10:28.412Z,46.4
2023-05-09T07:13:21.130Z,54.3
2023-05-09T07:16:32.860Z,51.6
2023-05-09T07:19:21.086Z,51.5
2023-05-09T07:22:21.161Z,50.9
2023-05-09T07:25:21.087Z,52.2
2023-05-09T07:28:21.059Z,53.9
2023-05-09T07:31:21.422Z,54.0
2023-05-09T07:34:21.205Z,51.5
2023-05-09T07:37:23.804Z,54.9
2023-05-09T07:40:21.212Z,53.6
2023-05-09T07:43:21.114Z,53.2
2023-05-09T07:46:21.690Z,53.5
2023-05-09T07:49:21.310Z,53.7
2023-05-09T07:52:21.094Z,53.5
2023-05-09T07:55:21.102Z,53.2
2023-05-09T07:58:21.094Z,51.8
2023-05-09T08:01:21.214Z,47.5
2023-05-09T08:04:21.750Z,48.9
2023-05-09T08:07:21.153Z,51.9
2023-05-09T08:10:21.078Z,50.0
2023-05-09T08:13:21.269Z,43.9
2023-05-09T08:16:21.677Z,41.7
2023-05-09T08:19:21.203Z,43.6
2023-05-09T08:22:21.251Z,39.4
2023-05-09T08:25:21.336Z,35.2
2023-05-09T08:28:22.360Z,35.1
2023-05-09T08:31:21.022Z,34.2
2023-05-09T08:34:21.062Z,33.6
2023-05-09T08:37:21.062Z,33.8
2023-05-09T08:40:21.094Z,33.1
2023-05-09T08:43:21.110Z,33.2
2023-05-09T08:46:21.098Z,34.1
2023-05-09T08:49:24.334Z,34.1
2023-05-09T08:52:21.112Z,34.4
2023-05-09T08:55:21.080Z,34.6
2023-05-09T08:58:21.113Z,37.2
2023-05-09T09:01:24.845Z,42.7
2023-05-09T09:04:21.057Z,47.6
2023-05-09T09:07:21.125Z,52.5
2023-05-09T09:10:21.274Z,55.8
2023-05-09T09:13:22.515Z,59.1
2023-05-09T09:16:21.154Z,55.3
2023-05-09T09:19:21.185Z,47.3
2023-05-09T09:22:21.668Z,39.9
2023-05-09T09:25:21.153Z,38.1
2023-05-09T09:28:21.019Z,40.1
2023-05-09T09:31:21.378Z,37.5
2023-05-09T09:34:21.392Z,34.4
2023-05-09T09:37:21.273Z,34.9
2023-05-09T09:40:21.150Z,35.7
2023-05-09T09:43:21.042Z,35.4
2023-05-09T09:46:21.411Z,36.1
2023-05-09T09:49:21.101Z,36.4
2023-05-09T09:52:20.992Z,37.8
2023-05-09T09:55:21.289Z,41.5
2023-05-09T09:58:21.125Z,44.0
2023-05-09T10:01:21.661Z,51.2
2023-05-09T10:04:21.690Z,49.7
2023-05-09T10:07:21.141Z,52.4
2023-05-09T10:10:21.176Z,47.9
2023-05-09T10:13:21.234Z,44.5
2023-05-09T10:16:40.091Z,44.2
2023-05-09T10:19:21.948Z,47.5
2023-05-09T10:22:21.995Z,51.7
2023-05-09T10:25:21.052Z,51.9
2023-05-09T10:28:20.997Z,51.3
2023-05-09T10:31:25.010Z,52.2
2023-05-09T10:34:21.107Z,47.1
2023-05-09T10:37:21.093Z,47.7
2023-05-09T10:40:20.987Z,55.2
2023-05-09T10:43:21.153Z,53.8
2023-05-09T10:46:21.602Z,55.4
2023-05-09T10:49:21.084Z,56.2
2023-05-09T10:52:21.070Z,57.0
2023-05-09T10:55:21.125Z,58.0
2023-05-09T10:58:21.010Z,63.0
2023-05-09T11:01:21.205Z,63.3
2023-05-09T11:04:21.474Z,67.7
2023-05-09T11:07:21.061Z,65.4
2023-05-09T11:10:21.043Z,63.4
2023-05-09T11:13:21.290Z,66.1
2023-05-09T11:16:21.428Z,68.0
2023-05-09T11:19:21.723Z,69.0
2023-05-09T11:22:21.135Z,71.7
2023-05-09T11:25:21.096Z,81.0
2023-05-09T11:28:21.035Z,92.0
2023-05-09T11:31:21.185Z,105.7
2023-05-09T11:34:21.188Z,94.0
2023-05-09T11:37:21.111Z,94.3
2023-05-09T11:40:21.183Z,95.2
2023-05-09T11:43:21.117Z,91.0
2023-05-09T11:46:22.011Z,85.2
2023-05-09T11:49:21.181Z,82.5
2023-05-09T11:52:21.089Z,77.6
2023-05-09T11:55:21.086Z,74.3
2023-05-09T11:58:21.087Z,83.1
2023-05-09T12:01:21.311Z,80.6
2023-05-09T12:04:21.809Z,79.0
2023-05-09T12:07:21.061Z,78.6
2023-05-09T12:10:21.062Z,79.2
2023-05-09T12:13:21.285Z,76.9
2023-05-09T12:16:21.720Z,78.0
2023-05-09T12:19:21.106Z,80.3
2023-05-09T12:22:20.997Z,81.8
2023-05-09T12:25:21.083Z,92.8
2023-05-09T12:28:21.081Z,94.5
2023-05-09T12:31:21.184Z,103.5
2023-05-09T12:34:21.105Z,113.7
2023-05-09T12:37:21.065Z,117.7
2023-05-09T12:40:21.056Z,103.8
2023-05-09T12:43:23.052Z,95.5
2023-05-09T12:46:21.439Z,120.3
2023-05-09T12:49:21.085Z,94.3
2023-05-09T12:52:22.288Z,88.1
2023-05-09T12:55:21.080Z,88.3
2023-05-09T12:58:21.077Z,88.4
2023-05-09T13:01:21.325Z,96.3
2023-05-09T13:04:21.476Z,103.3
2023-05-09T13:07:21.067Z,98.8
2023-05-09T13:10:21.116Z,110.9
2023-05-09T13:13:21.147Z,119.7
2023-05-09T13:16:23.581Z,120.7
2023-05-09T13:19:21.081Z,110.1
2023-05-09T13:22:21.108Z,111.3
2023-05-09T13:25:21.000Z,107.2
2023-05-09T13:37:21.037Z,170.0
2023-05-09T13:40:21.115Z,111.3
2023-05-09T13:43:23.659Z,303.7
2023-05-09T13:46:21.426Z,166.2
2023-05-09T13:49:21.105Z,118.6
2023-05-09T13:52:21.152Z,106.4
2023-05-09T13:55:21.040Z,92.9
2023-05-09T13:58:21.110Z,90.3
2023-05-09T14:01:21.637Z,87.7
2023-05-09T14:04:21.588Z,85.8
2023-05-09T14:07:21.035Z,94.5
2023-05-09T14:10:27.972Z,102.1
2023-05-09T14:13:21.164Z,94.9
2023-05-09T14:16:21.414Z,92.9
2023-05-09T14:19:25.479Z,88.4
2023-05-09T14:22:21.156Z,90.5
2023-05-09T14:25:25.692Z,87.7
2023-05-09T14:28:21.088Z,86.0
2023-05-09T14:31:21.535Z,91.0
2023-05-09T14:34:21.142Z,93.8
2023-05-09T14:37:20.970Z,87.4
2023-05-09T14:40:21.055Z,91.8
2023-05-09T14:43:21.005Z,91.2
2023-05-09T14:46:21.114Z,94.1
2023-05-09T14:49:21.208Z,99.9
2023-05-09T14:52:21.016Z,98.9
2023-05-09T14:55:22.804Z,99.3
2023-05-09T14:58:21.103Z,103.9
2023-05-09T15:01:31.659Z,103.2
2023-05-09T15:04:21.216Z,93.4
2023-05-09T15:07:21.125Z,99.9
2023-05-09T15:10:21.065Z,107.2
2023-05-09T15:13:22.181Z,106.2
2023-05-09T15:16:21.215Z,102.5
2023-05-09T15:19:22.041Z,93.9
2023-05-09T15:22:21.082Z,81.3
2023-05-09T15:25:30.942Z,76.7
2023-05-09T15:28:21.154Z,67.2
2023-05-09T15:31:21.478Z,66.1
2023-05-09T15:34:21.068Z,65.6
2023-05-09T15:37:21.036Z,68.4
2023-05-09T15:40:21.356Z,73.6
2023-05-09T15:43:24.114Z,75.0
2023-05-09T15:46:21.167Z,74.8
2023-05-09T15:49:21.154Z,70.8
2023-05-09T15:52:21.068Z,79.3
2023-05-09T15:55:21.234Z,81.3
2023-05-09T15:58:21.071Z,90.7
2023-05-09T16:01:22.790Z,87.5
2023-05-09T16:04:21.700Z,89.6
2023-05-09T16:07:21.104Z,94.0
2023-05-09T16:10:21.171Z,94.0
2023-05-09T16:13:21.616Z,108.3
2023-05-09T16:16:21.154Z,105.3
2023-05-09T16:19:21.105Z,96.5
2023-05-09T16:22:21.184Z,95.8
2023-05-09T16:25:21.073Z,95.1
2023-05-09T16:28:21.064Z,95.5
2023-05-09T16:31:21.807Z,94.0
2023-05-09T16:34:21.208Z,95.7
2023-05-09T16:37:21.127Z,105.6
2023-05-09T16:40:21.130Z,102.3
2023-05-09T16:43:22.138Z,98.5
2023-05-09T16:46:21.454Z,88.8
2023-05-09T16:49:22.929Z,84.6
2023-05-09T16:52:21.279Z,83.4
2023-05-09T16:55:21.058Z,78.5
2023-05-09T16:58:21.039Z,84.1
2023-05-09T17:01:21.787Z,86.6
2023-05-09T17:04:21.257Z,87.4
2023-05-09T17:07:21.048Z,87.7
2023-05-09T17:10:21.012Z,86.3
2023-05-09T17:13:21.367Z,88.1
2023-05-09T17:16:21.173Z,86.8
2023-05-09T17:19:30.002Z,93.9
2023-05-09T17:22:21.147Z,91.4
2023-05-09T17:25:21.026Z,89.3
2023-05-09T17:28:21.005Z,87.5
2023-05-09T17:31:21.829Z,86.6
2023-05-09T17:34:21.084Z,96.5
2023-05-09T17:37:21.070Z,96.8
2023-05-09T17:40:21.050Z,99.7
2023-05-09T17:43:21.118Z,104.4
2023-05-09T17:46:21.301Z,107.3
2023-05-09T17:49:21.118Z,115.4
2023-05-09T17:52:21.121Z,109.1
2023-05-09T17:55:21.057Z,112.7
2023-05-09T17:58:21.113Z,107.1
2023-05-09T18:01:21.728Z,109.3
2023-05-09T18:04:22.251Z,104.0
2023-05-09T18:07:21.275Z,99.0
2023-05-09T18:10:21.050Z,94.1
2023-05-09T18:13:22.599Z,98.4
2023-05-09T18:16:21.294Z,91.0
2023-05-09T18:19:21.179Z,94.5
2023-05-09T18:22:21.061Z,95.6
2023-05-09T18:25:21.742Z,94.5
2023-05-09T18:28:21.171Z,97.9
2023-05-09T18:31:21.314Z,98.0
2023-05-09T18:34:21.274Z,110.5
2023-05-09T18:37:21.048Z,104.9
2023-05-09T18:40:21.039Z,97.6
2023-05-09T18:43:21.272Z,90.3
2023-05-09T18:46:21.306Z,93.9
2023-05-09T18:49:21.118Z,90.9
2023-05-09T18:52:20.968Z,92.2
2023-05-09T18:55:21.010Z,89.8
2023-05-09T18:58:21.125Z,91.5
2023-05-09T19:01:21.639Z,91.8
2023-05-09T19:04:21.699Z,98.3
2023-05-09T19:07:21.087Z,105.4
2023-05-09T19:10:24.045Z,108.8
2023-05-09T19:13:21.944Z,111.9
2023-05-09T19:16:21.087Z,114.0
2023-05-09T19:19:21.170Z,125.6
2023-05-09T19:22:22.586Z,111.8
2023-05-09T19:25:21.056Z,107.1
2023-05-09T19:28:21.121Z,112.1
2023-05-09T19:31:21.692Z,116.3
2023-05-09T19:34:21.212Z,117.6
2023-05-09T19:37:21.110Z,120.5
2023-05-09T19:40:21.092Z,118.5
2023-05-09T19:43:21.601Z,115.9
2023-05-09T19:46:21.125Z,96.5
2023-05-09T19:55:21.040Z,84.2
2023-05-09T20:10:21.098Z,85.7
2023-05-09T20:13:21.264Z,85.6
2023-05-09T20:16:21.022Z,82.8
2023-05-09T20:19:23.806Z,84.3
2023-05-09T20:22:21.009Z,86.0
2023-05-09T20:25:21.090Z,89.9
2023-05-09T20:28:21.062Z,97.0
2023-05-09T20:31:21.298Z,103.9
2023-05-09T20:34:21.049Z,108.8
2023-05-09T20:37:21.057Z,132.4
2023-05-09T20:40:21.071Z,154.6
2023-05-09T20:43:21.158Z,160.1
2023-05-09T20:46:21.199Z,149.7
2023-05-09T20:49:21.211Z,122.4
2023-05-09T20:52:21.098Z,105.2
2023-05-09T20:55:21.133Z,98.6
2023-05-09T20:58:21.150Z,90.2
2023-05-09T21:01:21.401Z,73.0
2023-05-09T21:04:21.435Z,58.4
2023-05-09T21:07:20.974Z,42.9
2023-05-09T21:10:21.137Z,31.4
2023-05-09T21:13:21.330Z,27.4
2023-05-09T21:16:21.105Z,29.2
2023-05-09T21:19:21.068Z,28.4
2023-05-09T21:22:21.001Z,27.9
2023-05-09T21:25:21.037Z,28.2
2023-05-09T21:28:20.998Z,31.5
2023-05-09T21:31:21.478Z,35.3
2023-05-09T21:34:21.101Z,39.9
2023-05-09T21:37:21.029Z,37.0
2023-05-09T21:40:22.156Z,45.2
2023-05-09T21:43:21.001Z,46.0
2023-05-09T21:46:21.136Z,51.5
2023-05-09T21:49:21.781Z,51.4
2023-05-09T21:52:20.985Z,53.9
2023-05-09T21:55:21.002Z,56.7
2023-05-09T21:58:22.050Z,53.5
2023-05-09T22:01:21.498Z,56.6
2023-05-09T22:04:21.680Z,61.5
2023-05-09T22:07:20.984Z,63.8
2023-05-09T22:10:20.986Z,63.1
2023-05-09T22:13:21.094Z,62.4
2023-05-09T22:16:21.082Z,61.4
2023-05-09T22:19:21.118Z,61.2
2023-05-09T22:22:20.980Z,60.9
2023-05-09T22:25:21.033Z,60.2
2023-05-09T22:28:21.356Z,60.1
2023-05-09T22:31:21.591Z,58.9
2023-05-09T22:34:21.143Z,60.1
2023-05-09T22:37:21.048Z,63.1
2023-05-09T22:40:21.026Z,61.9
2023-05-09T22:43:21.001Z,64.3
2023-05-09T22:46:21.210Z,67.5
2023-05-09T22:49:21.228Z,71.2
2023-05-09T22:52:21.124Z,72.4
2023-05-09T22:55:21.153Z,82.2
2023-05-09T22:58:20.985Z,82.2
2023-05-09T23:01:21.743Z,83.4
2023-05-09T23:04:21.490Z,87.5
2023-05-09T23:07:21.185Z,92.4
2023-05-09T23:10:21.084Z,92.5
2023-05-09T23:13:21.219Z,99.9
2023-05-09T23:16:21.430Z,101.0
2023-05-09T23:19:21.172Z,112.6
2023-05-09T23:22:21.105Z,115.9
2023-05-09T23:25:21.052Z,113.9
2023-05-09T23:28:21.361Z,122.8
2023-05-09T23:31:23.037Z,123.5
2023-05-09T23:34:21.152Z,124.0
2023-05-09T23:37:21.106Z,125.1
2023-05-09T23:40:21.175Z,126.3
2023-05-09T23:43:21.158Z,132.2
2023-05-09T23:46:21.165Z,135.8
2023-05-09T23:49:21.108Z,140.4
2023-05-09T23:52:21.164Z,139.2
2023-05-09T23:55:21.046Z,151.7
2023-05-09T23:58:21.092Z,159.3
